createdAt,value
2022-10-09T00:01:30.906Z,62.51
2022-10-09T00:04:00.122Z,62.46
2022-10-09T00:06:31.348Z,62.59
2022-10-09T00:09:02.964Z,62.01
2022-10-09T00:11:33.154Z,63.12
2022-10-09T00:14:01.787Z,62.67
2022-10-09T00:16:31.691Z,62.77
2022-10-09T00:19:00.084Z,63.01
2022-10-09T00:21:31.009Z,62.95
2022-10-09T00:24:01.925Z,63.23
2022-10-09T00:26:30.677Z,63.33
2022-10-09T00:28:59.273Z,63.66
2022-10-09T00:31:27.522Z,63.49
2022-10-09T00:33:57.275Z,64.19
2022-10-09T00:36:27.386Z,63.31
2022-10-09T00:38:56.713Z,63.33
2022-10-09T00:41:28.589Z,63.28
2022-10-09T00:43:59.222Z,63.46
2022-10-09T00:46:34.666Z,63.25
2022-10-09T00:49:14.453Z,63.68
2022-10-09T00:51:45.027Z,64.69
2022-10-09T00:54:17.107Z,63.64
2022-10-09T00:56:45.460Z,64.22
2022-10-09T00:59:14.311Z,64.36
2022-10-09T01:01:43.244Z,64.29
2022-10-09T01:04:13.084Z,63.46
2022-10-09T01:06:58.362Z,63.84
2022-10-09T01:09:39.190Z,63.34
2022-10-09T01:12:20.628Z,63.23
2022-10-09T01:14:59.523Z,62.94
2022-10-09T01:17:37.703Z,62.71
2022-10-09T01:20:37.348Z,62.56
2022-10-09T01:23:36.007Z,62.02
2022-10-09T01:26:18.052Z,62.23
2022-10-09T01:28:52.225Z,62.56
2022-10-09T01:31:21.822Z,62.80
2022-10-09T01:33:50.514Z,62.41
2022-10-09T01:36:20.230Z,62.62
2022-10-09T01:38:49.475Z,62.79
2022-10-09T01:41:18.429Z,62.57
2022-10-09T01:43:47.811Z,63.06
2022-10-09T01:46:22.721Z,62.57
2022-10-09T01:49:03.646Z,62.14
2022-10-09T01:51:45.577Z,61.72
2022-10-09T01:54:15.926Z,62.13
2022-10-09T01:56:48.812Z,62.81
2022-10-09T01:59:19.805Z,61.94
2022-10-09T02:01:49.815Z,61.49
2022-10-09T02:04:19.711Z,61.96
2022-10-09T02:06:48.659Z,62.17
2022-10-09T02:09:18.878Z,62.15
2022-10-09T02:11:53.949Z,62.36
2022-10-09T02:14:25.134Z,62.68
2022-10-09T02:17:03.764Z,62.63
2022-10-09T02:19:37.876Z,62.50
2022-10-09T02:22:11.671Z,62.85
2022-10-09T02:24:41.360Z,63.28
2022-10-09T02:27:12.303Z,63.18
2022-10-09T02:29:42.814Z,62.97
2022-10-09T02:32:11.745Z,62.62
2022-10-09T02:34:39.993Z,63.07
2022-10-09T02:37:09.783Z,62.99
2022-10-09T02:39:37.996Z,63.39
2022-10-09T02:42:06.504Z,62.96
2022-10-09T02:44:34.898Z,62.71
2022-10-09T02:47:07.731Z,63.16
2022-10-09T02:49:35.821Z,63.23
2022-10-09T02:52:29.736Z,62.96
2022-10-09T02:54:57.942Z,62.63
2022-10-09T02:57:26.117Z,62.93
2022-10-09T02:59:54.229Z,62.85
2022-10-09T03:02:23.718Z,62.18
2022-10-09T03:04:51.983Z,62.57
2022-10-09T03:07:20.035Z,62.53
2022-10-09T03:09:48.098Z,62.02
2022-10-09T03:12:21.198Z,62.68
2022-10-09T03:14:49.339Z,62.33
2022-10-09T03:17:17.471Z,62.06
2022-10-09T03:19:46.892Z,62.66
2022-10-09T03:22:14.927Z,62.72
2022-10-09T03:24:43.032Z,62.98
2022-10-09T03:27:11.075Z,62.40
2022-10-09T03:29:39.177Z,62.72
2022-10-09T03:32:07.433Z,62.65
2022-10-09T03:34:35.486Z,62.44
2022-10-09T03:37:05.810Z,62.55
2022-10-09T03:39:33.818Z,63.13
2022-10-09T03:42:01.806Z,63.45
2022-10-09T03:44:29.863Z,63.71
2022-10-09T03:46:58.552Z,63.63
2022-10-09T03:49:26.694Z,63.08
2022-10-09T03:51:54.687Z,62.82
2022-10-09T03:54:24.107Z,63.08
2022-10-09T03:56:52.380Z,62.66
2022-10-09T03:59:20.399Z,62.25
2022-10-09T04:01:48.449Z,62.76
2022-10-09T04:04:16.776Z,62.33
2022-10-09T04:06:45.153Z,62.69
2022-10-09T04:09:13.169Z,61.98
2022-10-09T04:11:42.570Z,62.36
2022-10-09T04:14:10.767Z,62.17
2022-10-09T04:16:38.827Z,61.95
2022-10-09T04:19:06.927Z,61.78
2022-10-09T04:21:34.976Z,61.47
2022-10-09T04:24:03.712Z,61.73
2022-10-09T04:26:31.772Z,61.62
2022-10-09T04:29:01.266Z,61.53
2022-10-09T04:31:29.463Z,61.41
2022-10-09T04:33:57.685Z,61.45
2022-10-09T04:36:26.251Z,61.25
2022-10-09T04:38:54.278Z,61.32
2022-10-09T04:41:24.319Z,61.63
2022-10-09T04:43:56.093Z,61.15
2022-10-09T04:46:26.987Z,61.49
2022-10-09T04:48:55.288Z,61.85
2022-10-09T04:51:23.407Z,61.80
2022-10-09T04:53:51.684Z,61.88
2022-10-09T04:56:21.415Z,61.71
2022-10-09T04:58:50.229Z,61.82
2022-10-09T05:01:21.356Z,61.74
2022-10-09T05:03:52.095Z,61.95
2022-10-09T05:06:21.986Z,62.12
2022-10-09T05:08:50.639Z,61.69
2022-10-09T05:11:21.897Z,62.04
2022-10-09T05:13:52.986Z,62.38
2022-10-09T05:16:23.783Z,62.37
2022-10-09T05:18:55.914Z,62.33
2022-10-09T05:21:24.748Z,62.25
2022-10-09T05:23:55.423Z,62.70
2022-10-09T05:26:25.987Z,62.76
2022-10-09T05:28:54.117Z,63.06
2022-10-09T05:31:25.840Z,63.96
2022-10-09T05:33:57.283Z,64.13
2022-10-09T05:36:25.408Z,64.52
2022-10-09T05:38:53.546Z,64.79
2022-10-09T05:41:21.652Z,65.06
2022-10-09T05:43:51.235Z,65.39
2022-10-09T05:46:21.629Z,65.04
2022-10-09T05:48:55.993Z,65.57
2022-10-09T05:51:26.968Z,66.32
2022-10-09T05:53:56.553Z,66.05
2022-10-09T05:56:27.277Z,66.38
2022-10-09T05:58:57.621Z,66.66
2022-10-09T06:01:28.451Z,67.39
2022-10-09T06:03:59.914Z,67.51
2022-10-09T06:06:31.004Z,67.92
2022-10-09T06:09:00.327Z,68.10
2022-10-09T06:11:31.643Z,67.83
2022-10-09T06:14:01.969Z,67.65
2022-10-09T06:16:32.836Z,67.97
2022-10-09T06:19:03.454Z,67.48
2022-10-09T06:21:31.930Z,67.80
2022-10-09T06:24:02.002Z,67.36
2022-10-09T06:26:31.624Z,67.94
2022-10-09T06:29:02.382Z,67.17
2022-10-09T06:31:33.125Z,67.51
2022-10-09T06:34:04.716Z,67.66
2022-10-09T06:36:36.250Z,67.41
2022-10-09T06:39:07.531Z,68.02
2022-10-09T06:41:35.975Z,67.94
2022-10-09T06:44:17.222Z,66.92
2022-10-09T06:46:49.473Z,66.84
2022-10-09T06:49:18.934Z,66.52
2022-10-09T06:51:47.140Z,66.83
2022-10-09T06:54:17.280Z,66.77
2022-10-09T06:56:45.640Z,66.73
2022-10-09T06:59:14.036Z,67.10
2022-10-09T07:01:42.415Z,67.14
2022-10-09T07:04:13.617Z,67.62
2022-10-09T07:06:46.666Z,67.94
2022-10-09T07:09:16.837Z,68.18
2022-10-09T07:11:48.809Z,68.47
2022-10-09T07:14:17.378Z,68.54
2022-10-09T07:16:48.363Z,68.68
2022-10-09T07:19:18.195Z,69.18
2022-10-09T07:21:50.016Z,69.08
2022-10-09T07:24:20.624Z,69.14
2022-10-09T07:26:49.467Z,69.35
2022-10-09T07:29:19.534Z,69.68
2022-10-09T07:31:47.786Z,69.58
2022-10-09T07:34:15.846Z,69.23
2022-10-09T07:36:44.035Z,69.10
2022-10-09T07:39:14.336Z,68.69
2022-10-09T07:41:43.295Z,69.18
2022-10-09T07:44:12.106Z,69.14
2022-10-09T07:46:40.276Z,68.91
2022-10-09T07:49:08.488Z,68.98
2022-10-09T07:51:36.684Z,68.70
2022-10-09T07:54:05.061Z,68.73
2022-10-09T07:56:37.850Z,68.83
2022-10-09T07:59:08.586Z,68.67
2022-10-09T08:01:37.353Z,68.03
2022-10-09T08:04:06.181Z,67.66
2022-10-09T08:06:34.456Z,67.49
2022-10-09T08:09:04.382Z,67.67
2022-10-09T08:11:35.212Z,67.78
2022-10-09T08:14:03.668Z,67.41
2022-10-09T08:16:33.394Z,66.45
2022-10-09T08:19:02.858Z,66.50
2022-10-09T08:21:32.850Z,66.50
2022-10-09T08:24:01.374Z,65.17
2022-10-09T08:26:31.694Z,64.53
2022-10-09T08:29:04.275Z,63.20
2022-10-09T08:31:33.157Z,63.56
2022-10-09T08:34:04.327Z,62.40
2022-10-09T08:36:33.143Z,61.73
2022-10-09T08:39:01.255Z,62.13
2022-10-09T08:41:45.622Z,61.63
2022-10-09T08:44:25.066Z,61.28
2022-10-09T08:47:03.342Z,61.76
2022-10-09T08:49:42.256Z,59.10
2022-10-09T08:52:25.639Z,57.71
2022-10-09T08:54:56.863Z,57.22
2022-10-09T08:57:28.121Z,55.18
2022-10-09T09:00:22.195Z,56.28
2022-10-09T09:03:27.196Z,56.01
2022-10-09T09:06:01.014Z,54.25
2022-10-09T09:08:42.163Z,53.99
2022-10-09T09:11:23.435Z,51.86
2022-10-09T09:14:03.814Z,51.40
2022-10-09T09:16:45.132Z,51.69
2022-10-09T09:19:39.447Z,51.25
2022-10-09T09:22:12.973Z,52.51
2022-10-09T09:24:45.859Z,51.23
2022-10-09T09:27:19.188Z,50.78
2022-10-09T09:29:55.595Z,50.45
2022-10-09T09:32:28.685Z,50.75
2022-10-09T09:35:13.132Z,51.21
2022-10-09T09:37:41.275Z,50.48
2022-10-09T09:40:36.719Z,48.06
2022-10-09T09:43:14.662Z,48.83
2022-10-09T09:45:44.127Z,48.79
2022-10-09T09:48:40.901Z,49.12
2022-10-09T09:51:27.906Z,48.50
2022-10-09T09:54:00.478Z,48.55
2022-10-09T09:57:06.877Z,48.12
2022-10-09T09:59:33.946Z,49.00
2022-10-09T10:02:15.232Z,47.76
2022-10-09T10:04:59.651Z,47.90
2022-10-09T10:07:30.603Z,49.43
2022-10-09T10:10:08.341Z,45.55
2022-10-09T10:12:42.290Z,47.35
2022-10-09T10:15:21.224Z,44.52
2022-10-09T10:17:55.959Z,49.92
2022-10-09T10:20:25.737Z,46.34
2022-10-09T10:22:57.687Z,46.95
2022-10-09T10:25:32.670Z,47.06
2022-10-09T10:28:07.386Z,46.96
2022-10-09T10:30:38.564Z,47.79
2022-10-09T10:33:19.565Z,45.51
2022-10-09T10:35:53.463Z,45.49
2022-10-09T10:38:28.253Z,45.25
2022-10-09T10:41:06.367Z,45.28
2022-10-09T10:43:43.049Z,45.09
2022-10-09T10:46:23.771Z,45.22
2022-10-09T10:48:52.199Z,43.96
2022-10-09T10:51:51.193Z,45.62
2022-10-09T10:54:34.560Z,42.64
2022-10-09T10:57:11.705Z,55.68
2022-10-09T10:59:45.179Z,51.45
2022-10-09T11:03:05.232Z,46.94
2022-10-09T11:05:46.114Z,48.31
2022-10-09T11:08:49.374Z,45.74
2022-10-09T11:11:23.669Z,44.01
2022-10-09T11:14:03.426Z,46.86
2022-10-09T11:16:49.782Z,44.43
2022-10-09T11:19:45.801Z,45.96
2022-10-09T11:22:31.684Z,44.80
2022-10-09T11:25:22.252Z,41.26
2022-10-09T11:27:55.902Z,39.13
2022-10-09T11:30:26.571Z,39.32
2022-10-09T11:33:00.381Z,39.41
2022-10-09T11:35:35.253Z,38.98
2022-10-09T11:38:08.112Z,39.88
2022-10-09T11:40:43.476Z,39.54
2022-10-09T11:43:29.087Z,39.63
2022-10-09T11:46:05.771Z,40.16
2022-10-09T11:48:43.686Z,39.98
2022-10-09T11:51:19.578Z,40.22
2022-10-09T11:53:48.627Z,40.27
2022-10-09T11:56:26.229Z,39.07
2022-10-09T11:58:59.419Z,40.08
2022-10-09T12:01:33.070Z,40.43
2022-10-09T12:04:05.728Z,39.66
2022-10-09T12:06:46.081Z,39.84
2022-10-09T12:09:24.273Z,40.44
2022-10-09T12:12:07.273Z,40.41
2022-10-09T12:14:37.826Z,41.20
2022-10-09T12:17:18.122Z,41.18
2022-10-09T12:19:46.649Z,40.50
2022-10-09T12:22:19.447Z,40.10
2022-10-09T12:24:51.243Z,40.96
2022-10-09T12:27:25.065Z,40.78
2022-10-09T12:29:57.442Z,40.28
2022-10-09T12:32:30.185Z,40.43
2022-10-09T12:34:58.977Z,40.61
2022-10-09T12:37:35.499Z,40.46
2022-10-09T12:40:14.577Z,40.56
2022-10-09T12:42:45.990Z,40.31
2022-10-09T12:45:20.056Z,40.91
2022-10-09T12:47:48.547Z,40.17
2022-10-09T12:50:29.104Z,40.09
2022-10-09T12:53:00.182Z,40.61
2022-10-09T12:55:31.281Z,40.79
2022-10-09T12:58:04.493Z,41.26
2022-10-09T13:00:34.361Z,41.55
2022-10-09T13:03:02.657Z,41.38
2022-10-09T13:05:39.104Z,41.27
2022-10-09T13:08:16.908Z,40.97
2022-10-09T13:10:45.013Z,40.74
2022-10-09T13:13:22.222Z,40.63
2022-10-09T13:16:02.017Z,41.07
2022-10-09T13:18:30.556Z,41.73
2022-10-09T13:21:05.922Z,41.63
2022-10-09T13:23:36.411Z,41.89
2022-10-09T13:26:06.695Z,41.69
2022-10-09T13:28:36.272Z,41.65
2022-10-09T13:31:08.091Z,41.65
2022-10-09T13:33:36.386Z,41.33
2022-10-09T13:36:04.748Z,42.03
2022-10-09T13:38:35.058Z,41.73
2022-10-09T13:41:03.908Z,41.67
2022-10-09T13:43:32.207Z,41.87
2022-10-09T13:46:01.696Z,41.80
2022-10-09T13:48:31.219Z,41.43
2022-10-09T13:50:59.811Z,41.61
2022-10-09T13:53:28.441Z,41.83
2022-10-09T13:56:00.746Z,42.09
2022-10-09T13:58:29.727Z,42.36
2022-10-09T14:00:58.880Z,42.41
2022-10-09T14:03:28.378Z,42.53
2022-10-09T14:05:59.679Z,42.56
2022-10-09T14:08:28.090Z,41.82
2022-10-09T14:10:56.274Z,41.69
2022-10-09T14:13:24.326Z,41.95
2022-10-09T14:15:53.091Z,41.82
2022-10-09T14:18:21.481Z,42.11
2022-10-09T14:20:51.176Z,42.50
2022-10-09T14:23:19.248Z,42.83
2022-10-09T14:25:47.290Z,42.50
2022-10-09T14:28:15.413Z,42.05
2022-10-09T14:30:46.052Z,41.88
2022-10-09T14:33:14.103Z,42.46
2022-10-09T14:35:42.104Z,42.43
2022-10-09T14:38:11.483Z,42.92
2022-10-09T14:40:43.482Z,42.67
2022-10-09T14:43:11.843Z,42.84
2022-10-09T14:45:39.941Z,42.81
2022-10-09T14:48:08.056Z,42.77
2022-10-09T14:50:37.336Z,42.96
2022-10-09T14:53:05.399Z,43.44
2022-10-09T14:55:36.771Z,43.72
2022-10-09T14:58:04.795Z,43.84
2022-10-09T15:00:33.591Z,44.03
2022-10-09T15:03:01.623Z,44.18
2022-10-09T15:05:29.790Z,44.67
2022-10-09T15:07:57.841Z,44.59
2022-10-09T15:10:25.910Z,44.46
2022-10-09T15:12:55.306Z,44.80
2022-10-09T15:15:23.345Z,44.73
2022-10-09T15:17:51.612Z,44.53
2022-10-09T15:20:20.409Z,44.77
2022-10-09T15:22:49.371Z,45.11
2022-10-09T15:25:17.599Z,45.49
2022-10-09T15:27:45.700Z,45.34
2022-10-09T15:30:15.385Z,45.86
2022-10-09T15:32:43.489Z,45.51
2022-10-09T15:35:11.555Z,45.72
2022-10-09T15:37:39.691Z,46.11
2022-10-09T15:40:09.082Z,46.53
2022-10-09T15:42:37.663Z,46.55
2022-10-09T15:45:07.027Z,46.97
2022-10-09T15:47:50.606Z,47.14
2022-10-09T15:50:19.623Z,47.63
2022-10-09T15:52:47.960Z,47.79
2022-10-09T15:55:16.489Z,47.75
2022-10-09T15:57:44.552Z,47.93
2022-10-09T16:00:14.482Z,47.83
2022-10-09T16:02:44.080Z,47.72
2022-10-09T16:05:12.234Z,48.46
2022-10-09T16:07:41.303Z,48.61
2022-10-09T16:10:10.235Z,48.66
2022-10-09T16:12:38.423Z,49.05
2022-10-09T16:15:07.895Z,49.40
2022-10-09T16:17:35.950Z,49.23
2022-10-09T16:20:06.501Z,49.90
2022-10-09T16:22:34.889Z,49.91
2022-10-09T16:25:02.994Z,50.60
2022-10-09T16:27:31.555Z,50.53
2022-10-09T16:29:59.595Z,50.96
2022-10-09T16:32:29.817Z,50.73
2022-10-09T16:34:57.964Z,50.73
2022-10-09T16:37:27.337Z,51.06
2022-10-09T16:39:55.436Z,51.13
2022-10-09T16:42:23.500Z,51.66
2022-10-09T16:44:51.619Z,51.80
2022-10-09T16:47:19.886Z,52.03
2022-10-09T16:49:47.949Z,52.26
2022-10-09T16:52:16.319Z,52.57
2022-10-09T16:54:46.208Z,52.88
2022-10-09T16:57:14.427Z,52.94
2022-10-09T16:59:44.153Z,52.96
2022-10-09T17:02:12.371Z,53.19
2022-10-09T17:04:41.196Z,52.94
2022-10-09T17:07:10.400Z,53.59
2022-10-09T17:09:40.380Z,53.61
2022-10-09T17:12:12.981Z,53.65
2022-10-09T17:14:41.730Z,54.17
2022-10-09T17:17:12.229Z,53.96
2022-10-09T17:19:41.142Z,54.33
2022-10-09T17:22:09.401Z,54.40
2022-10-09T17:24:37.528Z,54.16
2022-10-09T17:27:09.646Z,54.15
2022-10-09T17:29:39.884Z,54.38
2022-10-09T17:32:09.292Z,55.80
2022-10-09T17:34:42.897Z,54.56
2022-10-09T17:37:10.989Z,54.61
2022-10-09T17:39:39.229Z,54.48
2022-10-09T17:42:07.448Z,54.84
2022-10-09T17:44:35.582Z,54.91
2022-10-09T17:47:06.165Z,54.87
2022-10-09T17:49:34.307Z,54.92
2022-10-09T17:52:02.352Z,55.14
2022-10-09T17:54:30.486Z,55.41
2022-10-09T17:57:00.212Z,55.44
2022-10-09T17:59:28.432Z,56.00
2022-10-09T18:01:56.519Z,55.92
2022-10-09T18:04:25.884Z,56.54
2022-10-09T18:06:53.941Z,56.51
2022-10-09T18:09:22.663Z,56.87
2022-10-09T18:11:51.042Z,57.16
2022-10-09T18:14:19.132Z,57.19
2022-10-09T18:16:47.605Z,57.44
2022-10-09T18:19:18.502Z,57.67
2022-10-09T18:21:50.585Z,57.72
2022-10-09T18:24:19.236Z,57.94
2022-10-09T18:26:47.631Z,59.03
2022-10-09T18:29:18.304Z,58.94
2022-10-09T18:31:46.410Z,58.77
2022-10-09T18:34:14.512Z,58.97
2022-10-09T18:36:42.838Z,58.74
2022-10-09T18:39:15.712Z,58.87
2022-10-09T18:41:44.526Z,58.92
2022-10-09T18:44:18.546Z,58.94
2022-10-09T18:46:51.658Z,58.17
2022-10-09T18:49:23.564Z,58.95
2022-10-09T18:51:52.599Z,59.13
2022-10-09T18:54:24.519Z,59.40
2022-10-09T18:56:52.768Z,59.77
2022-10-09T18:59:23.150Z,59.69
2022-10-09T19:01:51.237Z,59.75
2022-10-09T19:04:19.617Z,59.94
2022-10-09T19:06:47.973Z,59.82
2022-10-09T19:09:17.350Z,59.86
2022-10-09T19:11:47.038Z,59.87
2022-10-09T19:14:16.152Z,59.57
2022-10-09T19:16:45.802Z,59.69
2022-10-09T19:19:14.165Z,60.11
2022-10-09T19:21:43.912Z,60.17
2022-10-09T19:24:12.856Z,60.43
2022-10-09T19:26:41.806Z,60.14
2022-10-09T19:29:11.406Z,59.94
2022-10-09T19:31:39.661Z,60.01
2022-10-09T19:34:08.531Z,60.80
2022-10-09T19:36:36.868Z,60.76
2022-10-09T19:39:05.915Z,60.91
2022-10-09T19:41:34.282Z,61.03
2022-10-09T19:44:02.663Z,60.77
2022-10-09T19:46:32.463Z,61.01
2022-10-09T19:49:00.591Z,61.15
2022-10-09T19:51:29.049Z,61.43
2022-10-09T19:53:59.107Z,61.47
2022-10-09T19:56:30.317Z,61.40
2022-10-09T19:59:02.421Z,61.06
2022-10-09T20:01:35.210Z,61.48
2022-10-09T20:04:07.769Z,61.17
2022-10-09T20:06:38.973Z,61.17
2022-10-09T20:09:07.598Z,61.15
2022-10-09T20:11:35.890Z,61.18
2022-10-09T20:14:05.848Z,61.07
2022-10-09T20:16:36.689Z,60.83
2022-10-09T20:19:05.936Z,61.24
2022-10-09T20:21:35.299Z,61.30
2022-10-09T20:24:03.721Z,61.21
2022-10-09T20:26:33.166Z,61.70
2022-10-09T20:29:01.237Z,61.43
2022-10-09T20:31:30.226Z,61.37
2022-10-09T20:34:00.023Z,61.42
2022-10-09T20:36:31.923Z,61.17
2022-10-09T20:39:02.009Z,61.09
2022-10-09T20:41:31.869Z,61.41
2022-10-09T20:44:03.296Z,61.45
2022-10-09T20:46:34.591Z,61.69
2022-10-09T20:49:06.588Z,61.70
2022-10-09T20:51:36.354Z,61.83
2022-10-09T20:54:30.677Z,61.88
2022-10-09T20:56:58.741Z,61.91
2022-10-09T20:59:27.260Z,61.72
2022-10-09T21:01:55.270Z,61.71
2022-10-09T21:04:24.783Z,61.62
2022-10-09T21:06:52.891Z,61.85
2022-10-09T21:09:21.042Z,61.76
2022-10-09T21:11:50.521Z,61.88
2022-10-09T21:14:18.551Z,61.78
2022-10-09T21:16:46.662Z,61.95
2022-10-09T21:19:14.782Z,62.03
2022-10-09T21:21:50.063Z,62.04
2022-10-09T21:24:19.081Z,62.05
2022-10-09T21:26:47.689Z,62.29
2022-10-09T21:29:15.887Z,62.09
2022-10-09T21:31:43.962Z,62.19
2022-10-09T21:34:12.032Z,62.13
2022-10-09T21:37:19.931Z,61.72
2022-10-09T21:39:33.305Z,62.07
2022-10-09T21:42:01.371Z,62.44
2022-10-09T21:44:30.045Z,62.49
2022-10-09T21:46:58.118Z,62.29
2022-10-09T21:49:28.575Z,62.39
2022-10-09T21:51:58.257Z,62.47
2022-10-09T21:54:26.511Z,62.72
2022-10-09T21:56:54.513Z,62.62
2022-10-09T21:59:22.585Z,62.76
2022-10-09T22:01:50.625Z,62.77
2022-10-09T22:04:18.732Z,62.95
2022-10-09T22:06:46.818Z,62.93
2022-10-09T22:09:16.438Z,63.03
2022-10-09T22:11:45.115Z,62.90
2022-10-09T22:14:13.738Z,62.88
2022-10-09T22:16:41.842Z,63.29
2022-10-09T22:19:09.911Z,63.47
2022-10-09T22:21:38.027Z,63.37
2022-10-09T22:24:06.415Z,63.35
2022-10-09T22:26:36.440Z,63.37
2022-10-09T22:29:04.489Z,63.51
2022-10-09T22:31:32.608Z,63.86
2022-10-09T22:34:02.730Z,63.62
2022-10-09T22:36:33.831Z,63.58
2022-10-09T22:39:05.533Z,63.99
2022-10-09T22:41:36.080Z,63.99
2022-10-09T22:44:06.473Z,64.21
2022-10-09T22:46:37.094Z,64.26
2022-10-09T22:49:05.794Z,64.60
2022-10-09T22:51:33.909Z,64.40
2022-10-09T22:54:02.686Z,64.74
2022-10-09T22:56:33.878Z,65.31
2022-10-09T22:59:03.443Z,65.12
2022-10-09T23:01:35.873Z,65.16
2022-10-09T23:04:07.110Z,64.94
2022-10-09T23:06:35.292Z,65.29
2022-10-09T23:09:06.992Z,65.60
2022-10-09T23:11:36.467Z,65.78
2022-10-09T23:14:06.989Z,65.66
2022-10-09T23:16:35.850Z,66.07
2022-10-09T23:19:07.164Z,65.91
2022-10-09T23:21:36.362Z,65.89
2022-10-09T23:24:10.978Z,66.16
2022-10-09T23:26:39.559Z,65.83
2022-10-09T23:29:14.434Z,65.64
2022-10-09T23:31:42.650Z,65.79
2022-10-09T23:34:11.339Z,65.88
2022-10-09T23:36:39.509Z,66.26
2022-10-09T23:39:08.173Z,65.98
2022-10-09T23:41:36.496Z,66.07
2022-10-09T23:44:05.238Z,66.05
2022-10-09T23:46:35.480Z,66.32
2022-10-09T23:49:04.897Z,66.28
2022-10-09T23:51:34.855Z,66.53
2022-10-09T23:54:02.933Z,66.78
2022-10-09T23:56:33.965Z,66.30
2022-10-09T23:59:06.197Z,66.48
